createdAt,value
2017-12-08T00:00:18.769Z,33.70
2017-12-08T00:01:21.253Z,19.60
2017-12-08T00:02:23.718Z,12.18
2017-12-08T00:03:26.190Z,16.55
2017-12-08T00:04:28.647Z,22.83
2017-12-08T00:05:31.724Z,16.05
2017-12-08T00:06:34.804Z,16.45
2017-12-08T00:07:37.538Z,21.05
2017-12-08T00:08:40.009Z,20.00
2017-12-08T00:09:42.476Z,14.73
2017-12-08T00:10:44.930Z,13.95
2017-12-08T00:11:47.412Z,14.02
2017-12-08T00:12:49.860Z,22.85
2017-12-08T00:13:52.327Z,24.58
2017-12-08T00:14:54.782Z,20.02
2017-12-08T00:15:57.234Z,17.77
2017-12-08T00:16:59.694Z,18.85
2017-12-08T00:18:02.144Z,17.87
2017-12-08T00:19:04.628Z,18.15
2017-12-08T00:20:07.083Z,17.12
2017-12-08T00:21:09.529Z,16.73
2017-12-08T00:22:11.993Z,19.67
2017-12-08T00:23:14.457Z,20.02
2017-12-08T00:24:16.933Z,20.77
2017-12-08T00:25:19.386Z,23.58
2017-12-08T00:26:21.835Z,23.33
2017-12-08T00:27:24.283Z,21.27
2017-12-08T00:28:26.745Z,19.17
2017-12-08T00:29:29.209Z,18.10
2017-12-08T00:30:31.678Z,13.90
2017-12-08T00:31:34.126Z,17.23
2017-12-08T00:32:36.588Z,24.75
2017-12-08T00:33:39.052Z,15.13
2017-12-08T00:34:41.511Z,29.40
2017-12-08T00:35:43.972Z,23.55
2017-12-08T00:36:46.434Z,19.27
2017-12-08T00:37:48.882Z,8.27
2017-12-08T00:38:51.348Z,30.88
2017-12-08T00:39:53.804Z,39.20
2017-12-08T00:40:56.254Z,25.35
2017-12-08T00:41:58.714Z,17.75
2017-12-08T00:43:01.180Z,20.62
2017-12-08T00:44:03.642Z,23.55
2017-12-08T00:45:06.108Z,24.08
2017-12-08T00:46:08.559Z,22.77
2017-12-08T00:47:11.025Z,21.37
2017-12-08T00:48:13.492Z,28.92
2017-12-08T00:49:15.938Z,33.88
2017-12-08T00:50:18.404Z,16.58
2017-12-08T00:51:20.850Z,16.55
2017-12-08T00:52:23.329Z,28.50
2017-12-08T00:53:25.782Z,27.33
2017-12-08T00:54:28.235Z,21.98
2017-12-08T00:55:30.700Z,23.73
2017-12-08T00:56:33.158Z,22.70
2017-12-08T00:57:35.625Z,24.33
2017-12-08T00:58:38.074Z,30.23
2017-12-08T00:59:40.556Z,33.38
2017-12-08T01:00:43.006Z,46.20
2017-12-08T01:01:45.473Z,26.25
2017-12-08T01:02:47.941Z,31.30
2017-12-08T01:03:50.416Z,29.48
2017-12-08T01:04:52.884Z,24.63
2017-12-08T01:05:55.349Z,45.55
2017-12-08T01:06:57.816Z,23.92
2017-12-08T01:08:00.289Z,35.25
2017-12-08T01:09:02.754Z,25.80
2017-12-08T01:10:05.206Z,42.53
2017-12-08T01:11:07.658Z,32.83
2017-12-08T01:12:10.132Z,25.08
2017-12-08T01:13:12.597Z,32.10
2017-12-08T01:14:15.058Z,28.90
2017-12-08T01:15:17.537Z,42.28
2017-12-08T01:16:19.991Z,34.55
2017-12-08T01:17:22.456Z,30.83
2017-12-08T01:18:24.910Z,33.60
2017-12-08T01:19:27.354Z,20.27
2017-12-08T01:20:29.810Z,35.83
2017-12-08T01:21:32.301Z,35.70
2017-12-08T01:22:34.772Z,30.95
2017-12-08T01:23:37.237Z,29.35
2017-12-08T01:24:39.727Z,39.88
2017-12-08T01:25:42.200Z,37.42
2017-12-08T01:26:44.679Z,24.65
2017-12-08T01:27:47.131Z,31.08
2017-12-08T01:28:49.600Z,34.60
2017-12-08T01:29:52.068Z,26.90
2017-12-08T01:30:54.514Z,23.70
2017-12-08T01:31:56.985Z,34.60
2017-12-08T01:32:59.438Z,34.40
2017-12-08T01:34:01.890Z,24.37
2017-12-08T01:35:04.342Z,44.05
2017-12-08T01:36:06.809Z,21.25
2017-12-08T01:37:09.254Z,28.35
2017-12-08T01:38:11.724Z,24.95
2017-12-08T01:39:14.186Z,28.30
2017-12-08T01:40:16.636Z,29.55
2017-12-08T01:41:19.094Z,26.15
2017-12-08T01:42:21.548Z,24.12
2017-12-08T01:43:24.034Z,32.33
2017-12-08T01:44:26.506Z,31.25
2017-12-08T01:45:28.964Z,31.35
2017-12-08T01:46:31.415Z,36.22
2017-12-08T01:47:33.871Z,18.48
2017-12-08T01:48:36.318Z,25.58
2017-12-08T01:49:38.793Z,33.95
2017-12-08T01:50:41.263Z,30.98
2017-12-08T01:51:43.714Z,24.23
2017-12-08T01:52:46.166Z,25.85
2017-12-08T01:53:48.633Z,17.15
2017-12-08T01:54:51.096Z,27.95
2017-12-08T01:55:53.564Z,24.67
2017-12-08T01:56:56.029Z,18.92
2017-12-08T01:57:58.504Z,16.60
2017-12-08T01:59:00.958Z,21.05
2017-12-08T02:00:03.422Z,23.12
2017-12-08T02:01:05.882Z,21.77
2017-12-08T02:02:08.356Z,30.42
2017-12-08T02:03:10.802Z,21.30
2017-12-08T02:04:13.274Z,29.05
2017-12-08T02:05:15.730Z,16.05
2017-12-08T02:06:18.178Z,22.62
2017-12-08T02:07:20.644Z,24.37
2017-12-08T02:08:23.099Z,13.05
2017-12-08T02:09:25.584Z,32.95
2017-12-08T02:10:28.085Z,36.15
2017-12-08T02:11:30.548Z,26.48
2017-12-08T02:12:33.012Z,13.82
2017-12-08T02:13:35.463Z,21.00
2017-12-08T02:14:37.938Z,20.17
2017-12-08T02:15:40.390Z,21.98
2017-12-08T02:16:42.856Z,20.80
2017-12-08T02:17:45.302Z,35.70
2017-12-08T02:18:47.754Z,16.25
2017-12-08T02:19:50.223Z,24.67
2017-12-08T02:20:52.684Z,20.48
2017-12-08T02:21:55.145Z,17.10
2017-12-08T02:22:57.594Z,17.80
2017-12-08T02:24:00.057Z,23.00
2017-12-08T02:25:02.540Z,19.60
2017-12-08T02:26:04.995Z,18.02
2017-12-08T02:27:07.442Z,19.75
2017-12-08T02:28:10.236Z,32.22
2017-12-08T02:29:12.686Z,23.80
2017-12-08T02:30:15.183Z,23.27
2017-12-08T02:31:17.644Z,25.40
2017-12-08T02:32:20.112Z,25.25
2017-12-08T02:33:22.562Z,26.08
2017-12-08T02:34:25.018Z,22.35
2017-12-08T02:35:27.505Z,19.33
2017-12-08T02:36:29.969Z,16.98
2017-12-08T02:37:32.436Z,17.70
2017-12-08T02:38:34.901Z,19.77
2017-12-08T02:39:37.365Z,16.98
2017-12-08T02:40:39.855Z,26.90
2017-12-08T02:41:42.323Z,19.65
2017-12-08T02:42:44.770Z,21.80
2017-12-08T02:43:47.240Z,17.95
2017-12-08T02:44:49.688Z,20.65
2017-12-08T02:45:52.158Z,23.92
2017-12-08T02:46:54.620Z,14.63
2017-12-08T02:47:57.083Z,15.10
2017-12-08T02:48:59.541Z,19.75
2017-12-08T02:50:02.007Z,25.58
2017-12-08T02:51:04.474Z,22.85
2017-12-08T02:52:06.945Z,18.50
2017-12-08T02:53:09.430Z,15.27
2017-12-08T02:54:11.896Z,16.87
2017-12-08T02:55:14.439Z,34.25
2017-12-08T02:56:16.909Z,17.90
2017-12-08T02:57:19.372Z,21.45
2017-12-08T02:58:21.826Z,23.58
2017-12-08T02:59:24.287Z,18.15
2017-12-08T03:00:28.656Z,13.35
2017-12-08T03:01:31.122Z,19.58
2017-12-08T03:02:33.574Z,24.10
2017-12-08T03:03:36.044Z,20.83
2017-12-08T03:04:38.509Z,26.17
2017-12-08T03:05:40.980Z,39.65
2017-12-08T03:06:43.559Z,29.92
2017-12-08T03:07:46.164Z,19.02
2017-12-08T03:08:48.616Z,20.55
2017-12-08T03:09:51.066Z,15.18
2017-12-08T03:10:53.532Z,26.40
2017-12-08T03:11:56.021Z,20.25
2017-12-08T03:12:58.485Z,9.48
2017-12-08T03:14:00.939Z,13.57
2017-12-08T03:15:03.417Z,33.40
2017-12-08T03:16:05.886Z,15.48
2017-12-08T03:17:08.379Z,23.45
2017-12-08T03:18:10.840Z,12.45
2017-12-08T03:19:13.301Z,26.20
2017-12-08T03:20:15.750Z,6.40
2017-12-08T03:21:18.200Z,21.27
2017-12-08T03:22:20.700Z,23.02
2017-12-08T03:23:23.165Z,10.35
2017-12-08T03:24:25.615Z,19.83
2017-12-08T03:25:28.077Z,27.80
2017-12-08T03:26:31.343Z,5.50
2017-12-08T03:27:33.839Z,13.70
2017-12-08T03:28:36.353Z,23.58
2017-12-08T03:29:38.833Z,30.00
2017-12-08T03:30:41.289Z,15.32
2017-12-08T03:31:43.756Z,18.37
2017-12-08T03:32:46.245Z,19.10
2017-12-08T03:33:48.703Z,23.95
2017-12-08T03:34:51.166Z,16.70
2017-12-08T03:35:53.632Z,20.50
2017-12-08T03:36:56.105Z,8.25
2017-12-08T03:37:58.592Z,15.48
2017-12-08T03:39:01.056Z,19.52
2017-12-08T03:40:03.502Z,19.35
2017-12-08T03:41:05.968Z,21.02
2017-12-08T03:42:08.431Z,22.30
2017-12-08T03:43:10.917Z,19.50
2017-12-08T03:44:13.389Z,15.25
2017-12-08T03:45:15.856Z,9.50
2017-12-08T03:46:18.325Z,16.90
2017-12-08T03:47:20.774Z,14.48
2017-12-08T03:48:23.293Z,14.25
2017-12-08T03:49:25.753Z,3.75
2017-12-08T03:50:28.201Z,18.00
2017-12-08T03:51:30.658Z,15.73
2017-12-08T03:52:33.102Z,15.90
2017-12-08T03:53:35.574Z,23.65
2017-12-08T03:54:38.041Z,18.35
2017-12-08T03:55:40.491Z,12.02
2017-12-08T03:56:42.956Z,35.75
2017-12-08T03:57:45.402Z,27.95
2017-12-08T03:58:47.874Z,22.35
2017-12-08T03:59:50.322Z,18.83
2017-12-08T04:00:52.786Z,20.35
2017-12-08T04:01:55.254Z,19.15
2017-12-08T04:02:57.710Z,15.35
2017-12-08T04:04:00.201Z,14.23
2017-12-08T04:05:02.662Z,14.20
2017-12-08T04:06:05.116Z,20.65
2017-12-08T04:07:07.617Z,18.05
2017-12-08T04:08:10.035Z,22.42
2017-12-08T04:09:12.506Z,11.73
2017-12-08T04:10:14.975Z,23.65
2017-12-08T04:11:17.439Z,33.88
2017-12-08T04:12:19.901Z,23.10
2017-12-08T04:13:22.354Z,20.33
2017-12-08T04:14:24.823Z,18.05
2017-12-08T04:15:27.274Z,21.45
2017-12-08T04:16:29.718Z,9.35
2017-12-08T04:17:32.179Z,10.73
2017-12-08T04:18:34.630Z,14.95
2017-12-08T04:19:37.082Z,21.10
2017-12-08T04:20:39.601Z,12.40
2017-12-08T04:21:42.039Z,8.35
2017-12-08T04:22:44.527Z,13.70
2017-12-08T04:23:47.067Z,10.70
2017-12-08T04:24:49.528Z,12.75
2017-12-08T04:25:51.978Z,8.25
2017-12-08T04:26:54.440Z,11.12
2017-12-08T04:27:56.904Z,18.92
2017-12-08T04:28:59.359Z,22.87
2017-12-08T04:30:01.829Z,5.50
2017-12-08T04:31:04.278Z,13.70
2017-12-08T04:32:06.731Z,11.38
2017-12-08T04:33:09.200Z,15.95
2017-12-08T04:34:11.693Z,8.43
2017-12-08T04:35:14.160Z,12.40
2017-12-08T04:36:16.621Z,3.67
2017-12-08T04:37:19.090Z,11.18
2017-12-08T04:38:21.564Z,23.92
2017-12-08T04:39:24.015Z,5.10
2017-12-08T04:40:26.466Z,14.38
2017-12-08T04:41:28.918Z,11.07
2017-12-08T04:42:31.375Z,18.35
2017-12-08T04:43:33.842Z,16.67
2017-12-08T04:44:36.308Z,16.05
2017-12-08T04:45:38.754Z,15.50
2017-12-08T04:46:41.203Z,17.23
2017-12-08T04:47:43.673Z,16.35
2017-12-08T04:48:46.138Z,16.98
2017-12-08T04:49:48.602Z,7.93
2017-12-08T04:50:51.068Z,10.13
2017-12-08T04:51:53.524Z,7.82
2017-12-08T04:52:55.996Z,21.90
2017-12-08T04:53:58.460Z,18.12
2017-12-08T04:55:00.928Z,9.32
2017-12-08T04:56:03.392Z,14.68
2017-12-08T04:57:05.884Z,12.60
2017-12-08T04:58:08.365Z,20.23
2017-12-08T04:59:10.816Z,16.73
2017-12-08T05:00:13.283Z,6.90
2017-12-08T05:01:15.734Z,14.77
2017-12-08T05:02:18.196Z,9.52
2017-12-08T05:03:20.655Z,14.85
2017-12-08T05:04:23.106Z,18.92
2017-12-08T05:05:25.571Z,8.75
2017-12-08T05:06:28.028Z,5.55
2017-12-08T05:07:30.502Z,11.50
2017-12-08T05:08:32.960Z,17.42
2017-12-08T05:09:35.424Z,14.15
2017-12-08T05:10:37.898Z,13.13
2017-12-08T05:11:40.373Z,12.95
2017-12-08T05:12:42.820Z,9.35
2017-12-08T05:13:45.270Z,7.85
2017-12-08T05:14:47.727Z,19.73
2017-12-08T05:15:50.199Z,17.62
2017-12-08T05:16:52.645Z,9.80
2017-12-08T05:17:55.102Z,11.20
2017-12-08T05:18:57.554Z,7.95
2017-12-08T05:20:00.021Z,12.55
2017-12-08T05:21:02.508Z,9.32
2017-12-08T05:22:04.963Z,11.63
2017-12-08T05:23:07.414Z,8.32
2017-12-08T05:24:09.866Z,9.35
2017-12-08T05:25:12.326Z,15.55
2017-12-08T05:26:14.818Z,12.20
2017-12-08T05:27:17.269Z,12.43
2017-12-08T05:28:19.736Z,11.38
2017-12-08T05:29:22.188Z,13.88
2017-12-08T05:30:24.637Z,17.58
2017-12-08T05:31:27.128Z,7.12
2017-12-08T05:32:29.600Z,7.45
2017-12-08T05:33:32.066Z,11.52
2017-12-08T05:34:34.519Z,10.18
2017-12-08T05:35:36.985Z,5.62
2017-12-08T05:36:39.455Z,14.80
2017-12-08T05:37:41.917Z,12.88
2017-12-08T05:38:44.362Z,11.98
2017-12-08T05:39:46.886Z,12.95
2017-12-08T05:40:49.349Z,16.00
2017-12-08T05:41:51.832Z,7.35
2017-12-08T05:42:54.277Z,14.25
2017-12-08T05:43:56.739Z,18.65
2017-12-08T05:44:59.203Z,12.05
2017-12-08T05:46:01.651Z,5.65
2017-12-08T05:47:04.130Z,18.87
2017-12-08T05:48:06.600Z,15.73
2017-12-08T05:49:09.084Z,14.32
2017-12-08T05:50:11.548Z,9.98
2017-12-08T05:51:14.009Z,9.07
2017-12-08T05:52:16.527Z,8.32
2017-12-08T05:53:19.008Z,11.10
2017-12-08T05:54:21.449Z,6.55
2017-12-08T05:55:23.918Z,24.10
2017-12-08T05:56:26.397Z,11.75
2017-12-08T05:57:28.880Z,9.85
2017-12-08T05:58:31.334Z,10.27
2017-12-08T05:59:33.805Z,11.60
2017-12-08T06:00:36.270Z,12.23
2017-12-08T06:01:38.799Z,9.43
2017-12-08T06:02:41.278Z,11.95
2017-12-08T06:03:43.741Z,9.25
2017-12-08T06:04:46.204Z,9.40
2017-12-08T06:05:48.668Z,3.70
2017-12-08T06:06:51.130Z,12.10
2017-12-08T06:07:53.614Z,15.18
2017-12-08T06:08:56.076Z,6.22
2017-12-08T06:09:58.537Z,15.15
2017-12-08T06:11:01.007Z,12.02
2017-12-08T06:12:03.458Z,12.18
2017-12-08T06:13:05.939Z,12.90
2017-12-08T06:14:08.409Z,15.18
2017-12-08T06:15:10.871Z,12.07
2017-12-08T06:16:13.322Z,7.65
2017-12-08T06:17:15.775Z,20.45
2017-12-08T06:18:18.272Z,11.30
2017-12-08T06:19:20.729Z,9.45
2017-12-08T06:20:23.188Z,13.50
2017-12-08T06:21:25.668Z,16.98
2017-12-08T06:22:28.114Z,29.25
2017-12-08T06:23:30.598Z,10.50
2017-12-08T06:24:33.062Z,10.63
2017-12-08T06:25:35.529Z,19.92
2017-12-08T06:26:37.978Z,10.38
2017-12-08T06:27:40.441Z,8.18
2017-12-08T06:28:42.935Z,13.07
2017-12-08T06:29:45.470Z,29.05
2017-12-08T06:30:47.920Z,16.98
2017-12-08T06:31:50.370Z,22.33
2017-12-08T06:32:52.828Z,17.95
2017-12-08T06:33:55.317Z,13.32
2017-12-08T06:34:57.786Z,22.23
2017-12-08T06:36:00.239Z,15.90
2017-12-08T06:37:02.709Z,16.12
2017-12-08T06:38:05.161Z,21.52
2017-12-08T06:39:07.635Z,20.15
2017-12-08T06:40:10.154Z,24.70
2017-12-08T06:41:12.623Z,17.62
2017-12-08T06:42:15.076Z,14.30
2017-12-08T06:43:22.093Z,23.95
2017-12-08T06:44:24.580Z,36.15
2017-12-08T06:45:27.048Z,19.35
2017-12-08T06:46:29.516Z,23.77
2017-12-08T06:47:31.970Z,15.93
2017-12-08T06:48:34.500Z,18.55
2017-12-08T06:49:37.012Z,13.13
2017-12-08T06:50:39.476Z,18.37
2017-12-08T06:51:41.940Z,17.25
2017-12-08T06:52:44.404Z,16.37
2017-12-08T06:53:46.913Z,14.27
2017-12-08T06:54:49.496Z,19.30
2017-12-08T06:55:51.958Z,12.82
2017-12-08T06:56:54.434Z,21.85
2017-12-08T06:57:56.904Z,12.75
2017-12-08T06:58:59.396Z,15.32
2017-12-08T07:00:01.880Z,15.82
2017-12-08T07:01:04.327Z,13.05
2017-12-08T07:02:06.827Z,18.50
2017-12-08T07:03:09.265Z,14.82
2017-12-08T07:04:11.707Z,9.90
2017-12-08T07:05:14.175Z,6.68
2017-12-08T07:06:16.636Z,13.13
2017-12-08T07:07:19.082Z,23.92
2017-12-08T07:08:21.548Z,16.42
2017-12-08T07:09:24.084Z,13.90
2017-12-08T07:10:26.578Z,15.57
2017-12-08T07:11:29.036Z,9.07
2017-12-08T07:12:31.483Z,15.27
2017-12-08T07:13:33.930Z,15.45
2017-12-08T07:14:36.392Z,17.70
2017-12-08T07:15:38.867Z,17.42
2017-12-08T07:16:41.329Z,6.22
2017-12-08T07:17:43.801Z,10.80
2017-12-08T07:18:46.262Z,15.73
2017-12-08T07:19:48.732Z,15.43
2017-12-08T07:20:51.224Z,11.38
2017-12-08T07:21:53.684Z,17.10
2017-12-08T07:22:56.143Z,16.45
2017-12-08T07:23:58.593Z,9.68
2017-12-08T07:25:01.034Z,9.88
2017-12-08T07:26:03.536Z,14.13
2017-12-08T07:27:05.983Z,6.00
2017-12-08T07:28:08.434Z,12.98
2017-12-08T07:29:10.897Z,7.22
2017-12-08T07:30:13.351Z,12.27
2017-12-08T07:31:15.856Z,16.20
2017-12-08T07:32:18.311Z,8.15
2017-12-08T07:33:20.754Z,11.02
2017-12-08T07:34:23.212Z,8.93
2017-12-08T07:35:25.681Z,15.35
2017-12-08T07:36:28.161Z,9.52
2017-12-08T07:37:30.615Z,10.05
2017-12-08T07:38:33.076Z,9.23
2017-12-08T07:39:35.541Z,13.50
2017-12-08T07:40:38.010Z,20.15
2017-12-08T07:41:40.479Z,12.98
2017-12-08T07:42:42.950Z,11.98
2017-12-08T07:43:45.415Z,10.35
2017-12-08T07:44:47.884Z,8.82
2017-12-08T07:45:50.330Z,14.20
2017-12-08T07:46:52.792Z,10.48
2017-12-08T07:47:55.246Z,23.05
2017-12-08T07:48:57.742Z,11.60
2017-12-08T07:50:00.202Z,13.98
2017-12-08T07:51:02.665Z,14.00
2017-12-08T07:52:05.114Z,9.38
2017-12-08T07:53:07.590Z,10.77
2017-12-08T07:54:10.060Z,10.45
2017-12-08T07:55:12.544Z,7.93
2017-12-08T07:56:15.000Z,4.03
2017-12-08T07:57:17.450Z,5.15
2017-12-08T07:58:19.898Z,13.98
2017-12-08T07:59:22.346Z,8.25
2017-12-08T08:00:24.809Z,14.73
2017-12-08T08:01:28.039Z,4.25
2017-12-08T08:02:30.501Z,12.55
2017-12-08T08:03:32.958Z,9.98
2017-12-08T08:04:35.424Z,9.20
2017-12-08T08:05:37.875Z,12.52
2017-12-08T08:06:40.383Z,14.73
2017-12-08T08:07:42.852Z,6.15
2017-12-08T08:08:45.316Z,8.15
2017-12-08T08:09:47.806Z,11.15
2017-12-08T08:10:50.269Z,19.70
2017-12-08T08:11:52.772Z,16.95
2017-12-08T08:12:55.236Z,18.85
2017-12-08T08:13:57.682Z,8.30
2017-12-08T08:15:00.126Z,7.03
2017-12-08T08:16:02.619Z,21.48
2017-12-08T08:17:05.083Z,7.45
2017-12-08T08:18:07.539Z,11.07
2017-12-08T08:19:10.010Z,10.68
2017-12-08T08:20:12.523Z,8.20
2017-12-08T08:21:21.279Z,8.70
2017-12-08T08:22:23.836Z,7.32
2017-12-08T08:23:26.292Z,11.23
2017-12-08T08:24:28.769Z,5.72
2017-12-08T08:25:31.288Z,7.35
2017-12-08T08:26:33.974Z,6.45
2017-12-08T08:27:36.437Z,5.00
2017-12-08T08:28:38.905Z,7.28
2017-12-08T08:29:41.368Z,3.47
2017-12-08T08:30:43.814Z,3.05
2017-12-08T08:31:46.266Z,3.35
2017-12-08T08:32:48.725Z,3.40
2017-12-08T08:33:51.192Z,4.85
2017-12-08T08:34:53.652Z,3.58
2017-12-08T08:35:56.098Z,3.67
2017-12-08T08:36:58.559Z,4.72
2017-12-08T08:38:01.018Z,3.05
2017-12-08T08:39:03.484Z,4.50
2017-12-08T08:40:05.944Z,12.37
2017-12-08T08:41:08.404Z,3.10
2017-12-08T08:42:10.869Z,2.95
2017-12-08T08:43:13.355Z,6.28
2017-12-08T08:44:15.865Z,2.85
2017-12-08T08:45:18.382Z,3.40
2017-12-08T08:46:24.780Z,6.47
2017-12-08T08:47:27.256Z,5.50
2017-12-08T08:48:29.698Z,4.82
2017-12-08T08:49:32.156Z,4.53
2017-12-08T08:50:34.625Z,4.60
2017-12-08T08:51:37.085Z,3.60
2017-12-08T08:52:39.530Z,3.53
2017-12-08T08:53:41.998Z,10.25
2017-12-08T08:54:44.458Z,7.45
2017-12-08T08:55:46.903Z,4.65
2017-12-08T08:56:49.365Z,4.62
2017-12-08T08:57:51.831Z,4.62
2017-12-08T08:58:54.306Z,7.30
2017-12-08T08:59:57.191Z,7.75
2017-12-08T09:00:59.855Z,6.75
2017-12-08T09:02:02.331Z,5.03
2017-12-08T09:03:04.778Z,14.80
2017-12-08T09:04:07.240Z,8.07
2017-12-08T09:05:09.690Z,16.70
2017-12-08T09:06:12.157Z,9.38
2017-12-08T09:08:32.394Z,13.30
2017-12-08T09:09:34.876Z,13.70
2017-12-08T09:10:37.347Z,11.07
2017-12-08T09:11:39.827Z,18.10
2017-12-08T09:12:42.313Z,13.35
2017-12-08T09:13:44.858Z,14.25
2017-12-08T09:14:47.344Z,10.75
2017-12-08T09:15:49.812Z,19.35
2017-12-08T09:16:52.270Z,15.40
2017-12-08T09:17:54.766Z,18.42
2017-12-08T09:18:57.218Z,11.43
2017-12-08T09:19:59.705Z,5.68
2017-12-08T09:21:02.169Z,15.00
2017-12-08T09:22:04.652Z,20.42
2017-12-08T09:23:07.163Z,17.65
2017-12-08T09:24:09.706Z,15.65
2017-12-08T09:25:12.202Z,9.18
2017-12-08T09:26:14.780Z,16.42
2017-12-08T09:27:17.245Z,6.93
2017-12-08T09:28:19.890Z,14.15
2017-12-08T09:29:22.334Z,11.85
2017-12-08T09:30:24.846Z,6.07
2017-12-08T09:31:27.330Z,10.00
2017-12-08T09:32:29.866Z,17.10
2017-12-08T09:33:32.756Z,12.68
2017-12-08T09:34:35.394Z,12.75
2017-12-08T09:35:37.878Z,16.00
2017-12-08T09:36:40.331Z,17.23
2017-12-08T09:37:42.801Z,16.12
2017-12-08T09:38:45.264Z,9.15
2017-12-08T09:39:47.732Z,11.18
2017-12-08T09:40:50.221Z,8.65
2017-12-08T09:41:52.666Z,15.35
2017-12-08T09:42:55.131Z,10.10
2017-12-08T09:43:57.615Z,9.65
2017-12-08T09:45:00.078Z,7.07
2017-12-08T09:46:02.596Z,13.62
2017-12-08T09:47:05.043Z,6.18
2017-12-08T09:48:07.486Z,9.68
2017-12-08T09:49:09.961Z,5.05
2017-12-08T09:50:12.421Z,14.75
2017-12-08T09:51:14.886Z,21.77
2017-12-08T09:52:17.520Z,6.32
2017-12-08T09:53:19.975Z,17.58
2017-12-08T09:54:22.439Z,9.15
2017-12-08T09:55:24.895Z,14.55
2017-12-08T09:56:27.358Z,1.42
2017-12-08T09:57:29.812Z,16.33
2017-12-08T09:58:32.328Z,15.52
2017-12-08T09:59:34.946Z,14.23
2017-12-08T10:00:37.424Z,12.10
2017-12-08T10:01:39.911Z,12.68
2017-12-08T10:02:42.378Z,15.77
2017-12-08T10:03:44.880Z,9.50
2017-12-08T10:04:47.331Z,18.80
2017-12-08T10:05:49.804Z,11.35
2017-12-08T10:06:52.404Z,13.25
2017-12-08T10:07:54.855Z,10.43
2017-12-08T10:08:57.320Z,15.23
2017-12-08T10:09:59.784Z,4.15
2017-12-08T10:11:02.238Z,3.78
2017-12-08T10:12:04.726Z,8.18
2017-12-08T10:13:07.208Z,15.18
2017-12-08T10:14:09.660Z,14.30
2017-12-08T10:15:12.179Z,7.37
2017-12-08T10:16:14.630Z,12.82
2017-12-08T10:17:17.098Z,13.45
2017-12-08T10:18:19.649Z,11.95
2017-12-08T10:19:22.107Z,20.60
2017-12-08T10:20:24.638Z,12.63
2017-12-08T10:21:27.117Z,20.50
2017-12-08T10:22:29.579Z,5.28
2017-12-08T10:23:32.052Z,12.13
2017-12-08T10:24:34.595Z,19.10
2017-12-08T10:25:37.050Z,11.25
2017-12-08T10:26:39.531Z,8.75
2017-12-08T10:27:42.031Z,6.95
2017-12-08T10:28:44.531Z,7.78
2017-12-08T10:29:46.994Z,3.17
2017-12-08T10:30:49.489Z,14.48
2017-12-08T10:31:52.128Z,9.73
2017-12-08T10:32:54.600Z,8.70
2017-12-08T10:33:57.064Z,4.28
2017-12-08T10:34:59.531Z,8.93
2017-12-08T10:36:02.040Z,6.62
2017-12-08T10:37:04.517Z,6.60
2017-12-08T10:38:07.000Z,4.97
2017-12-08T10:39:09.504Z,8.18
2017-12-08T10:40:11.987Z,10.75
2017-12-08T10:41:14.445Z,4.80
2017-12-08T10:42:16.898Z,12.00
2017-12-08T10:43:19.370Z,14.38
2017-12-08T10:44:21.818Z,4.15
2017-12-08T10:45:24.285Z,5.70
2017-12-08T10:46:27.681Z,7.62
2017-12-08T10:47:30.229Z,12.35
2017-12-08T10:48:33.314Z,15.95
2017-12-08T10:49:35.851Z,5.80
2017-12-08T10:50:38.733Z,6.37
2017-12-08T10:51:41.339Z,6.30
2017-12-08T10:52:43.796Z,10.15
2017-12-08T10:53:46.289Z,24.27
2017-12-08T10:54:48.738Z,12.25
2017-12-08T10:55:51.205Z,11.07
2017-12-08T10:56:53.673Z,5.47
2017-12-08T10:57:56.150Z,13.45
2017-12-08T10:58:58.622Z,10.23
2017-12-08T11:00:01.099Z,22.45
2017-12-08T11:01:03.565Z,10.93
2017-12-08T11:02:06.023Z,22.37
2017-12-08T11:03:08.482Z,12.25
2017-12-08T11:04:10.998Z,18.00
2017-12-08T11:05:13.460Z,11.38
2017-12-08T11:06:15.929Z,13.38
2017-12-08T11:07:18.389Z,8.15
2017-12-08T11:08:21.001Z,6.65
2017-12-08T11:09:23.566Z,6.95
2017-12-08T11:10:26.019Z,10.90
2017-12-08T11:11:28.489Z,9.38
2017-12-08T11:12:30.961Z,7.62
2017-12-08T11:13:33.415Z,5.43
2017-12-08T11:14:35.896Z,8.70
2017-12-08T11:15:38.342Z,5.57
2017-12-08T11:16:40.810Z,10.73
2017-12-08T11:17:43.269Z,7.57
2017-12-08T11:18:45.710Z,7.10
2017-12-08T11:19:48.189Z,7.28
2017-12-08T11:20:50.635Z,9.27
2017-12-08T11:21:53.086Z,13.73
2017-12-08T11:22:55.598Z,12.93
2017-12-08T11:23:58.057Z,7.28
2017-12-08T11:25:00.534Z,6.00
2017-12-08T11:26:02.997Z,12.45
2017-12-08T11:27:05.478Z,16.37
2017-12-08T11:28:08.318Z,5.00
2017-12-08T11:29:10.942Z,9.52
2017-12-08T11:30:13.406Z,11.32
2017-12-08T11:31:16.031Z,8.15
2017-12-08T11:32:18.517Z,6.55
2017-12-08T11:33:21.238Z,8.13
2017-12-08T11:34:23.726Z,13.20
2017-12-08T11:35:26.236Z,9.27
2017-12-08T11:36:29.868Z,10.48
2017-12-08T11:37:32.332Z,12.05
2017-12-08T11:38:35.380Z,14.00
2017-12-08T11:39:37.893Z,9.75
2017-12-08T11:40:40.363Z,11.43
2017-12-08T11:41:42.810Z,8.40
2017-12-08T11:42:45.268Z,9.25
2017-12-08T11:43:47.934Z,5.22
2017-12-08T11:44:50.491Z,9.18
2017-12-08T11:45:52.989Z,5.57
2017-12-08T11:46:55.737Z,9.20
2017-12-08T11:47:58.203Z,4.15
2017-12-08T11:49:00.668Z,24.87
2017-12-08T11:50:03.129Z,7.25
2017-12-08T11:51:05.599Z,9.38
2017-12-08T11:52:08.060Z,8.00
2017-12-08T11:53:10.789Z,6.90
2017-12-08T11:54:13.329Z,7.30
2017-12-08T11:55:15.792Z,6.53
2017-12-08T11:56:18.273Z,10.85
2017-12-08T11:57:20.720Z,4.97
2017-12-08T11:58:23.183Z,4.72
2017-12-08T11:59:25.634Z,6.85
2017-12-08T12:00:28.082Z,9.80
2017-12-08T12:01:30.641Z,6.57
2017-12-08T12:02:33.090Z,7.22
2017-12-08T12:03:35.556Z,2.78
2017-12-08T12:04:38.016Z,11.68
2017-12-08T12:05:40.485Z,16.17
2017-12-08T12:06:42.967Z,3.25
2017-12-08T12:07:45.424Z,9.65
2017-12-08T12:08:47.885Z,5.65
2017-12-08T12:09:50.369Z,8.40
2017-12-08T12:10:52.817Z,3.62
2017-12-08T12:11:55.290Z,13.50
2017-12-08T12:12:58.493Z,5.10
2017-12-08T12:14:01.100Z,5.57
2017-12-08T12:15:03.568Z,11.80
2017-12-08T12:16:07.402Z,17.05
2017-12-08T12:17:09.896Z,10.05
2017-12-08T12:18:12.338Z,6.62
2017-12-08T12:19:15.006Z,9.40
2017-12-08T12:20:17.468Z,7.82
2017-12-08T12:21:19.994Z,5.93
2017-12-08T12:22:22.458Z,6.50
2017-12-08T12:23:24.907Z,11.75
2017-12-08T12:24:27.354Z,13.13
2017-12-08T12:25:29.863Z,22.33
2017-12-08T12:26:32.284Z,8.85
2017-12-08T12:27:34.778Z,10.38
2017-12-08T12:28:37.513Z,19.05
2017-12-08T12:29:40.029Z,12.50
2017-12-08T12:30:42.471Z,7.57
2017-12-08T12:31:44.943Z,5.15
2017-12-08T12:32:47.446Z,10.80
2017-12-08T12:33:49.979Z,8.55
2017-12-08T12:34:52.440Z,5.80
2017-12-08T12:35:54.905Z,14.07
2017-12-08T12:36:57.393Z,10.35
2017-12-08T12:37:59.886Z,10.85
2017-12-08T12:39:02.351Z,16.23
2017-12-08T12:40:04.821Z,13.35
2017-12-08T12:41:07.491Z,10.98
2017-12-08T12:42:10.021Z,12.07
2017-12-08T12:43:12.530Z,8.68
2017-12-08T12:44:14.997Z,5.78
2017-12-08T12:45:17.552Z,15.98
2017-12-08T12:46:20.017Z,7.53
2017-12-08T12:47:22.480Z,10.18
2017-12-08T12:48:24.960Z,9.25
2017-12-08T12:49:27.433Z,8.13
2017-12-08T12:50:29.880Z,7.85
2017-12-08T12:51:33.200Z,10.77
2017-12-08T12:52:35.681Z,9.35
2017-12-08T12:53:38.181Z,5.57
2017-12-08T12:54:40.642Z,5.70
2017-12-08T12:55:43.104Z,12.02
2017-12-08T12:56:45.546Z,9.45
2017-12-08T12:57:47.998Z,12.23
2017-12-08T12:58:50.462Z,8.73
2017-12-08T12:59:52.920Z,5.12
2017-12-08T13:00:55.366Z,8.48
2017-12-08T13:01:57.818Z,11.88
2017-12-08T13:03:00.287Z,11.30
2017-12-08T13:04:02.772Z,6.40
2017-12-08T13:05:05.226Z,11.63
2017-12-08T13:06:07.686Z,8.70
2017-12-08T13:07:10.151Z,10.07
2017-12-08T13:08:12.612Z,10.45
2017-12-08T13:09:15.098Z,10.20
2017-12-08T13:10:17.566Z,7.25
2017-12-08T13:11:20.063Z,5.20
2017-12-08T13:12:22.520Z,5.62
2017-12-08T13:13:24.968Z,8.13
2017-12-08T13:14:27.428Z,6.53
2017-12-08T13:15:29.885Z,8.68
2017-12-08T13:16:32.343Z,7.40
2017-12-08T13:17:34.795Z,5.10
2017-12-08T13:18:37.260Z,5.37
2017-12-08T13:19:39.737Z,6.65
2017-12-08T13:20:42.178Z,9.57
2017-12-08T13:21:44.640Z,6.47
2017-12-08T13:22:47.104Z,11.73
2017-12-08T13:23:49.554Z,5.55
2017-12-08T13:24:52.033Z,5.90
2017-12-08T13:25:54.492Z,5.07
2017-12-08T13:26:56.952Z,6.10
2017-12-08T13:27:59.397Z,6.72
2017-12-08T13:29:01.868Z,5.97
2017-12-08T13:30:04.388Z,9.48
2017-12-08T13:31:06.830Z,8.52
2017-12-08T13:32:09.278Z,8.13
2017-12-08T13:33:11.740Z,8.05
2017-12-08T13:34:14.191Z,7.68